Weather reports worldwide

Advertisment
Zinnwald-Georgenfeld, Germany (10582): temperature & dewpoint: 04.07.2020 06:00:00 - 10.07.2020 06:00:00 (CEST)Zinnwald-Georgenfeld, Germany (10582): temperature 5cm & temperature -5cm: 04.07.2020 06:00:00 - 10.07.2020 06:00:00 (CEST)Zinnwald-Georgenfeld, Germany (10582): temperature -20cm & temperature -100cm: 04.07.2020 06:00:00 - 10.07.2020 06:00:00 (CEST)Zinnwald-Georgenfeld, Germany (10582): wind speed & gusts: 04.07.2020 06:00:00 - 10.07.2020 06:00:00 (CEST)Zinnwald-Georgenfeld, Germany (10582): wind direction: 04.07.2020 06:00:00 - 10.07.2020 06:00:00 (CEST)Zinnwald-Georgenfeld, Germany (10582): visibility: 04.07.2020 06:00:00 - 10.07.2020 06:00:00 (CEST)Zinnwald-Georgenfeld, Germany (10582): sunshine duration: 04.07.2020 06:00:00 - 10.07.2020 06:00:00 (CEST)Zinnwald-Georgenfeld, Germany (10582): precipitation: 04.07.2020 06:00:00 - 10.07.2020 06:00:00 (CEST)
Date & Time tt [°C] td [°C] tt 5cm [°C] tt -5cm [°C] tt -20cm [°C] tt -100cm [°C] ff [km/h] ff [kn] fx [km/h] fx [kn] dd vv [km] sd [min] rr [mm]
10.07.2020 06:00:00 14,1 12,6 12,9 12,5 14,8 13,7 16 9 21 11 S 42 0 0,0
10.07.2020 05:00:00 14,4 12,0 11,6 12,2 14,9 13,7 9 5 10 6 WSW 75 0 0,0
10.07.2020 04:00:00 14,6 11,7 10,5 12,6 15,0 13,7 8 5 10 5 W 75 0 0,0
10.07.2020 03:00:00 14,5 11,5 12,9 13,1 15,2 13,7 11 6 21 11 SW 75 0 0,0
10.07.2020 02:00:00 14,7 11,8 12,8 13,6 15,3 13,7 16 8 20 11 SSW 68 0 0,0
10.07.2020 01:00:00 16,1 12,0 14,3 14,1 15,4 13,7 8 4 23 13 W 73 0 0,0
10.07.2020 00:00:00 16,8 11,9 15,8 14,2 15,5 13,7 18 10 29 16 SW 75 0 0,0
09.07.2020 23:00:00 16,8 12,2 15,4 14,6 15,5 13,7 21 11 29 15 SW 75 0 0,0
09.07.2020 22:00:00 15,7 12,5 14,2 15,3 15,5 13,7 17 9 24 13 SW 75 0 0,0
09.07.2020 21:00:00 16,5 12,8 15,2 16,5 15,4 13,7 19 10 29 16 SW 75 10 0,0
09.07.2020 20:00:00 17,8 13,1 17,6 17,6 15,2 13,7 18 10 35 19 SW 75 17 0,0
09.07.2020 19:00:00 18,6 12,8 19,6 18,6 15,0 13,7 21 12 36 20 SW 75 25 0,0
09.07.2020 18:00:00 18,8 12,9 19,5 18,7 14,8 13,7 24 13 39 21 WSW 75 13 0,0
09.07.2020 17:00:00 16,9 15,0 18,1 18,4 14,5 13,7 15 8 24 13 SSW 34 1 0,0
09.07.2020 16:00:00 15,9 14,4 15,8 18,4 14,2 13,7 19 10 32 18 SSW 24 0 0,0
09.07.2020 15:00:00 15,6 14,4 16,5 18,0 14,0 13,8 25 14 37 20 SSW 14 2 0,0
09.07.2020 14:00:00 13,5 13,4 14,6 15,6 13,9 13,8 24 13 34 18 SSW 4,8 0 0,0
09.07.2020 13:00:00 12,5 12,4 13,2 15,1 13,8 13,8 24 13 35 19 SSW 0,2 0 0,0
09.07.2020 12:00:00 12,0 11,9 13,1 14,4 13,6 13,8 19 11 26 14 S 0,3 0 0,2
09.07.2020 11:00:00 11,0 10,9 11,6 14,4 13,5 13,8 16 9 23 12 S 0,1 0 0,0
09.07.2020 10:00:00 11,7 11,5 12,8 14,3 13,4 13,8 17 9 27 15 SSW 8 1 0,0
09.07.2020 09:00:00 10,5 10,4 11,0 12,2 13,4 13,8 20 11 28 15 S 0,1 0 0,0
09.07.2020 08:00:00 10,1 10,0 10,5 11,5 13,5 13,8 16 8 23 12 S 0,1 0 0,0
09.07.2020 07:00:00 9,9 9,8 10,1 11,2 13,5 13,8 16 9 25 14 S 0,1 0 0,0
09.07.2020 06:00:00 9,8 9,6 9,8 10,6 13,7 13,8 14 8 19 10 SSW 0,7 0 0,0
09.07.2020 05:00:00 9,6 9,5 9,6 10,1 13,8 13,8 13 7 20 11 SSW 0,4 0 0,0
09.07.2020 04:00:00 8,3 8,1 7,8 9,8 14,0 13,8 13 7 18 10 SSW 6 0 0,0
09.07.2020 03:00:00 8,3 7,8 7,7 10,2 14,1 13,8 10 5 13 7 S 12 0 0,0
09.07.2020 02:00:00 8,6 8,3 8,0 10,1 14,3 13,8 12 7 17 9 WSW 9 0 0,0
09.07.2020 01:00:00 8,7 8,5 8,6 10,5 14,5 13,8 11 6 14 7 W 0,1 0 0,0
09.07.2020 00:00:00 8,5 8,1 7,7 10,5 14,7 13,8 7 4 14 8 W 2,0 0 0,0
08.07.2020 23:00:00 8,5 8,2 8,2 10,9 14,9 13,8 11 6 16 9 WSW 1,8 0 0,0
08.07.2020 22:00:00 8,8 8,2 8,1 11,8 15,0 13,8 7 4 16 9 W 6 0 0,0
08.07.2020 21:00:00 9,5 8,3 8,9 13,2 15,0 13,8 9 5 20 11 W 29 0 0,0
08.07.2020 20:00:00 10,2 8,5 10,0 13,9 15,0 13,8 11 6 30 16 WNW 41 1 0,0
08.07.2020 19:00:00 10,0 8,8 10,3 13,9 15,1 13,8 14 8 29 16 WNW 36 0 0,0
08.07.2020 18:00:00 9,9 8,7 10,1 14,3 15,1 13,8 18 10 30 16 WNW 49 0 0,0
08.07.2020 17:00:00 10,2 9,0 10,6 14,5 15,1 13,8 19 10 34 19 W 40 0 0,1
08.07.2020 16:00:00 9,8 9,2 10,3 14,3 15,1 13,8 17 9 34 19 W 13 0 0,3
08.07.2020 15:00:00 10,2 9,4 10,7 13,9 15,1 13,8 20 11 35 19 WSW 27 0 0,7
08.07.2020 14:00:00 9,9 9,2 10,2 13,6 15,1 13,8 18 10 33 18 W 21 0 1,6
08.07.2020 13:00:00 9,5 9,1 9,9 14,1 15,1 13,8 15 8 24 13 SSW 4,2 0 1,4
08.07.2020 12:00:00 10,4 8,7 10,6 15,4 15,0 13,8 16 8 27 15 SW 22 0 0,0
08.07.2020 11:00:00 10,2 8,0 10,8 14,9 15,0 13,8 19 10 30 16 SSW 27 0 0,0
08.07.2020 10:00:00 10,2 8,2 11,1 13,9 15,0 13,8 22 12 30 16 SSW 39 0 0,1
08.07.2020 09:00:00 9,1 7,9 9,4 12,9 15,2 13,8 20 11 27 15 SSW 17 0 0,1
08.07.2020 08:00:00 9,0 7,5 9,2 12,3 15,3 13,8 14 8 18 10 SSW 39 0 0,1
08.07.2020 07:00:00 8,1 7,1 8,1 11,7 15,5 13,8 8 4 13 7 SSW 22 0 0,0
08.07.2020 06:00:00 8,0 6,4 7,9 11,5 15,7 13,8 8 4 18 10 NW 31 0 0,0
08.07.2020 05:00:00 7,8 6,9 7,8 11,7 15,9 13,8 13 7 24 13 NW 24 0 0,0
08.07.2020 04:00:00 8,1 6,8 7,9 12,0 16,2 13,8 15 8 24 13 NNW 33 0 0,0
08.07.2020 03:00:00 8,9 6,5 8,5 12,4 16,4 13,8 13 7 30 16 N 55 0 0,0
08.07.2020 02:00:00 10,0 4,6 9,7 12,9 16,7 13,8 9 5 23 13 W 75 0 0,0
08.07.2020 01:00:00 9,8 4,9 9,4 13,3 16,9 13,8 9 5 18 10 WSW 73 0 0,0
08.07.2020 00:00:00 10,2 4,5 9,8 13,8 17,2 13,8 13 7 18 10 WSW 75 0 0,0
07.07.2020 23:00:00 9,6 4,8 9,2 14,4 17,4 13,7 12 7 16 9 SW 75 0 0,0
07.07.2020 22:00:00 9,6 4,4 8,5 15,2 17,5 13,7 11 6 13 7 SW 75 0 0,0
07.07.2020 21:00:00 11,3 4,2 8,7 16,9 17,6 13,7 6 3 18 10 WSW 75 22 0,0
07.07.2020 20:00:00 13,1 4,1 12,9 19,0 17,5 13,7 11 6 30 16 W 75 36 0,0
07.07.2020 19:00:00 14,3 2,8 16,3 20,4 17,3 13,7 10 5 24 13 W 66 31 0,0
07.07.2020 18:00:00 13,9 4,0 16,6 21,6 17,0 13,7 11 6 29 16 W 75 31 0,0
07.07.2020 17:00:00 14,2 4,6 18,6 22,4 16,8 13,7 16 9 32 17 W 75 29 0,0
07.07.2020 16:00:00 13,0 5,1 16,2 22,2 16,4 13,7 12 7 32 17 W 68 11 0,0
07.07.2020 15:00:00 12,5 4,8 15,8 21,2 16,0 13,7 19 11 31 17 W 62 16 0,0
07.07.2020 14:00:00 12,0 4,6 15,1 21,2 15,7 13,7 17 9 32 17 W 60 24 0,0
07.07.2020 13:00:00 13,2 5,7 18,1 20,3 15,4 13,7 10 5 32 17 WNW 65 39 0,0
07.07.2020 12:00:00 10,8 5,3 13,6 17,9 15,3 13,7 16 9 33 18 WNW 71 23 0,0
07.07.2020 11:00:00 10,0 7,0 13,0 15,4 15,3 13,7 13 7 28 15 NW 50 16 0,0
07.07.2020 10:00:00 7,9 6,6 8,5 13,4 15,3 13,7 14 7 32 17 NW 33 3 0,1
07.07.2020 09:00:00 8,6 6,0 9,8 12,7 15,5 13,7 18 10 35 19 NW 45 4 0,0
07.07.2020 08:00:00 7,4 5,8 7,9 11,5 15,7 13,7 18 10 37 20 NW 33 0 0,0
07.07.2020 07:00:00 7,1 6,1 7,4 11,1 15,9 13,6 19 11 39 21 NW 28 0 0,0
07.07.2020 06:00:00 7,0 6,2 7,2 11,3 16,2 13,6 16 9 30 16 NW 18 0 0,0
07.07.2020 05:00:00 7,1 6,3 7,3 11,3 16,5 13,6 15 8 27 15 NW 31 0 0,0
07.07.2020 04:00:00 6,9 6,0 7,2 11,4 16,8 13,6 16 9 35 19 NW 30 0 0,0
07.07.2020 03:00:00 7,0 5,8 6,9 11,8 17,2 13,6 21 11 41 22 NW 49 0 0,0
07.07.2020 02:00:00 7,5 6,0 7,5 12,1 17,6 13,6 22 12 42 23 NW 51 0 0,0
07.07.2020 01:00:00 7,8 5,7 7,7 12,4 18,0 13,6 22 12 40 22 NW 66 0 0,0
07.07.2020 00:00:00 7,5 5,2 6,9 12,7 18,4 13,6 16 9 44 24 WNW 64 0 0,0
06.07.2020 23:00:00 8,1 5,2 7,4 13,8 18,7 13,6 20 11 42 23 NW 71 0 0,0
06.07.2020 22:00:00 8,5 4,5 7,6 15,3 19,0 13,6 19 10 41 22 WNW 70 0 0,0
06.07.2020 21:00:00 9,9 5,1 9,2 17,4 19,2 13,6 18 10 56 30 NW 68 37 0,0
06.07.2020 20:00:00 12,5 5,4 12,6 19,8 19,2 13,6 28 15 51 28 NW 58 35 0,0
06.07.2020 19:00:00 14,7 2,9 15,9 22,4 19,0 13,6 21 11 49 26 WNW 64 57 0,0
06.07.2020 18:00:00 15,0 3,4 17,4 24,0 18,7 13,5 24 13 46 25 NW 55 53 0,0
06.07.2020 17:00:00 16,1 4,3 19,4 25,2 18,4 13,5 13 7 45 25 NW 67 54 0,0
06.07.2020 16:00:00 16,1 3,9 19,7 24,8 18,0 13,5 21 11 45 25 WNW 56 46 0,0
06.07.2020 15:00:00 16,4 6,2 20,7 25,2 17,6 13,5 22 12 46 25 WNW 75 52 0,0
06.07.2020 14:00:00 16,3 6,1 20,3 24,7 17,3 13,5 18 10 46 25 WNW 59 59 0,0
06.07.2020 13:00:00 15,7 6,5 19,8 21,4 17,1 13,5 20 11 36 20 WNW 60 35 0,0
06.07.2020 12:00:00 14,9 8,0 18,6 20,0 17,0 13,5 19 10 32 18 W 55 30 0,0
06.07.2020 11:00:00 13,1 9,9 15,0 17,0 17,1 13,5 13 7 29 16 WNW 75 3 0,0
06.07.2020 10:00:00 12,7 10,9 13,3 16,8 17,1 13,5 18 10 32 17 WNW 54 10 0,0
06.07.2020 09:00:00 12,2 11,5 12,6 15,4 17,3 13,5 15 8 32 18 NW 23 0 0,2
06.07.2020 08:00:00 12,3 10,8 11,8 15,7 17,4 13,5 16 9 36 20 NW 6 0 0,0
06.07.2020 07:00:00 15,6 12,4 15,5 15,8 17,6 13,5 15 8 26 14 SW 75 0 0,0
06.07.2020 06:00:00 15,7 12,0 15,2 15,6 17,7 13,4 15 8 32 18 W 75 0 0,0
06.07.2020 05:00:00 15,7 12,4 15,2 15,6 17,9 13,4 10 6 28 15 SW 75 0 0,0
06.07.2020 04:00:00 16,0 12,1 14,7 16,0 18,1 13,4 19 11 35 19 SW 75 0 0,0
06.07.2020 03:00:00 17,2 12,6 16,8 16,4 18,3 13,4 22 12 38 20 WSW 75 0 0,0
06.07.2020 02:00:00 16,9 12,7 16,4 16,5 18,6 13,4 19 10 30 16 SW 75 0 0,0
06.07.2020 01:00:00 16,7 12,9 16,1 16,6 18,8 13,4 22 12 35 19 WSW 75 0 0,0
06.07.2020 00:00:00 16,3 12,9 15,4 16,8 19,1 13,4 19 10 36 19 SW 75 0 0,0
05.07.2020 23:00:00 16,6 12,7 15,6 17,5 19,3 13,4 22 12 33 18 SW 75 0 0,0
05.07.2020 22:00:00 16,8 12,7 15,8 18,6 19,4 13,4 20 11 30 16 WSW 75 0 0,0
05.07.2020 21:00:00 17,7 12,8 16,6 20,3 19,5 13,4 16 9 29 15 WSW 75 43 0,0
05.07.2020 20:00:00 19,2 13,4 19,4 22,2 19,4 13,4 20 11 33 18 WSW 75 30 0,0
05.07.2020 19:00:00 20,4 13,9 20,6 24,2 19,2 13,4 20 11 36 20 W 75 41 0,0
05.07.2020 18:00:00 20,3 13,8 20,9 25,1 19,0 13,4 26 14 38 20 SW 75 45 0,0
05.07.2020 17:00:00 20,0 13,7 21,4 24,6 18,7 13,3 24 13 43 23 WSW 75 15 0,0
05.07.2020 16:00:00 20,1 13,5 21,5 24,8 18,3 13,3 26 14 44 24 WSW 75 16 0,0
05.07.2020 15:00:00 20,4 13,5 22,6 25,6 17,9 13,3 25 14 45 25 WSW 75 24 0,0
05.07.2020 14:00:00 20,5 13,5 22,9 24,4 17,5 13,3 21 12 49 26 WSW 75 18 0,0
05.07.2020 13:00:00 20,6 13,5 24,6 23,9 17,2 13,3 21 11 44 24 WSW 75 31 0,0
05.07.2020 12:00:00 20,0 14,3 21,8 22,3 17,0 13,3 21 12 37 20 SSW 75 26 0,0
05.07.2020 11:00:00 18,4 13,4 19,2 19,6 16,9 13,3 21 11 38 20 WSW 75 1 0,0
05.07.2020 10:00:00 17,1 12,7 18,0 18,3 16,9 13,3 16 9 42 23 SW 72 0 0,0
05.07.2020 09:00:00 17,6 12,6 18,2 17,8 16,9 13,3 26 14 42 23 WSW 75 13 0,0
05.07.2020 08:00:00 16,2 11,9 16,7 15,9 17,0 13,3 24 13 39 21 WSW 72 0 0,0
05.07.2020 07:00:00 15,6 11,0 15,6 15,1 17,2 13,3 23 13 40 22 WSW 75 0 0,0
05.07.2020 06:00:00 15,1 10,5 14,7 14,8 17,5 13,3 20 11 37 20 WSW 75 0 0,0
05.07.2020 05:00:00 15,1 9,7 14,6 14,8 17,7 13,3 21 11 36 19 WSW 75 0 0,0
05.07.2020 04:00:00 15,3 8,6 14,8 14,7 18,0 13,3 21 11 32 18 WSW 75 0 0,0
05.07.2020 03:00:00 15,4 8,6 14,3 15,3 18,3 13,3 17 9 37 20 WSW 75 0 0,0
05.07.2020 02:00:00 16,1 8,7 15,1 16,1 18,5 13,3 18 10 41 22 WSW 75 0 0,0
05.07.2020 01:00:00 16,3 8,4 15,8 16,7 18,8 13,3 19 11 37 20 W 75 0 0,0
05.07.2020 00:00:00 16,3 8,2 15,8 17,2 19,1 13,3 21 11 32 17 WSW 75 0 0,0
04.07.2020 23:00:00 15,8 8,2 15,4 17,8 19,3 13,3 18 10 26 14 SW 69 0 0,0
04.07.2020 22:00:00 15,7 8,6 14,4 19,2 19,5 13,2 14 8 24 13 WSW 75 0 0,0
04.07.2020 21:00:00 17,7 8,7 17,0 21,2 19,5 13,2 15 8 26 14 WSW 71 7 0,0
04.07.2020 20:00:00 18,7 8,2 18,3 23,0 19,3 13,2 12 7 29 16 W 70 28 0,0
04.07.2020 19:00:00 20,2 8,0 21,9 25,7 19,0 13,2 21 11 32 18 SW 75 50 0,0
04.07.2020 18:00:00 20,1 10,2 21,6 26,5 18,6 13,2 16 9 35 19 SSW 62 42 0,0
04.07.2020 17:00:00 20,9 10,3 24,3 28,1 18,1 13,2 20 11 39 21 SW 65 56 0,0
04.07.2020 16:00:00 20,4 10,2 24,2 27,8 17,5 13,2 22 12 37 20 SSW 69 54 0,0
04.07.2020 15:00:00 21,0 10,6 25,0 27,8 16,9 13,2 20 11 40 22 SSW 71 55 0,0
04.07.2020 14:00:00 20,3 8,2 24,5 26,8 16,4 13,2 23 12 34 19 SW 75 59 0,0
04.07.2020 13:00:00 20,1 9,9 25,0 24,1 16,0 13,2 16 9 34 18 WSW 72 56 0,0
04.07.2020 12:00:00 18,7 8,4 22,7 21,6 15,6 13,2 24 13 35 19 SW 75 51 0,0
04.07.2020 11:00:00 17,9 8,4 20,6 20,0 15,4 13,2 24 13 42 23 WSW 67 59 0,0
04.07.2020 10:00:00 17,0 7,8 18,9 18,0 15,2 13,2 21 11 40 22 WSW 71 59 0,0
04.07.2020 09:00:00 15,8 8,1 17,4 15,7 15,2 13,2 18 10 35 19 W 75 60 0,0
04.07.2020 08:00:00 15,1 8,3 16,1 13,7 15,4 13,2 17 9 26 14 WSW 67 60 0,0
04.07.2020 07:00:00 13,2 8,3 13,9 11,7 15,7 13,2 11 6 16 9 WSW 75 60 0,0
04.07.2020 06:00:00 10,8 7,2 9,4 10,8 15,9 13,2 13 7 17 9 WSW 75 14 0,0

tt = temperature
td = dewpoint
tt 5cm = temperature 5cm
tt -5cm = temperature -5cm
tt -20cm = temperature -20cm
tt -100cm = temperature -100cm
ff = wind speed
fx = gusts
dd = wind direction
vv = visibility
sd = sunshine duration
rr = precipitation

Next stations